sensor_id;sensor_type;location;lat;lon;timestamp;pressure;altitude;pressure_sealevel;temperature;humidity
49397;BME280;35615;41.410;2.194;2022-12-29T00:01:26;102054.09;;;16.99;54.34
49397;BME280;35615;41.410;2.194;2022-12-29T00:04:03;102057.25;;;16.89;54.58
49397;BME280;35615;41.410;2.194;2022-12-29T00:06:45;102064.25;;;16.90;54.60
49397;BME280;35615;41.410;2.194;2022-12-29T00:09:31;102050.16;;;16.85;54.41
49397;BME280;35615;41.410;2.194;2022-12-29T00:12:37;102052.88;;;16.88;54.57
49397;BME280;35615;41.410;2.194;2022-12-29T00:15:32;102051.81;;;16.83;54.71
49397;BME280;35615;41.410;2.194;2022-12-29T00:18:13;102045.69;;;16.82;54.65
49397;BME280;35615;41.410;2.194;2022-12-29T00:21:07;102035.22;;;16.81;54.62
49397;BME280;35615;41.410;2.194;2022-12-29T00:24:04;102045.34;;;16.72;55.14
49397;BME280;35615;41.410;2.194;2022-12-29T00:26:55;102038.00;;;16.62;55.06
49397;BME280;35615;41.410;2.194;2022-12-29T00:29:47;102032.13;;;16.67;55.24
49397;BME280;35615;41.410;2.194;2022-12-29T00:32:46;102029.25;;;16.60;55.09
49397;BME280;35615;41.410;2.194;2022-12-29T00:35:57;102031.00;;;16.61;54.94
49397;BME280;35615;41.410;2.194;2022-12-29T00:38:39;102022.09;;;16.54;54.75
49397;BME280;35615;41.410;2.194;2022-12-29T00:41:30;102033.38;;;16.53;54.78
49397;BME280;35615;41.410;2.194;2022-12-29T00:44:22;102027.19;;;16.51;55.14
49397;BME280;35615;41.410;2.194;2022-12-29T00:47:01;102024.59;;;16.51;55.21
49397;BME280;35615;41.410;2.194;2022-12-29T00:49:47;102027.09;;;16.48;55.06
49397;BME280;35615;41.410;2.194;2022-12-29T00:52:26;102017.41;;;16.44;54.86
49397;BME280;35615;41.410;2.194;2022-12-29T00:55:10;102011.03;;;16.36;55.00
49397;BME280;35615;41.410;2.194;2022-12-29T00:57:45;102004.88;;;16.34;55.08
49397;BME280;35615;41.410;2.194;2022-12-29T01:00:17;102000.22;;;16.25;54.82
49397;BME280;35615;41.410;2.194;2022-12-29T01:03:05;102001.06;;;16.24;54.88
49397;BME280;35615;41.410;2.194;2022-12-29T01:05:40;101991.47;;;16.23;55.12
49397;BME280;35615;41.410;2.194;2022-12-29T01:08:23;101994.53;;;16.11;55.18
49397;BME280;35615;41.410;2.194;2022-12-29T01:11:12;101992.88;;;16.13;55.33
49397;BME280;35615;41.410;2.194;2022-12-29T01:13:47;101995.25;;;16.07;55.53
49397;BME280;35615;41.410;2.194;2022-12-29T01:16:23;102004.13;;;16.12;55.36
49397;BME280;35615;41.410;2.194;2022-12-29T01:19:16;102006.69;;;16.11;55.45
49397;BME280;35615;41.410;2.194;2022-12-29T01:22:15;101999.69;;;16.10;55.08
49397;BME280;35615;41.410;2.194;2022-12-29T01:24:52;102006.63;;;16.09;55.09
49397;BME280;35615;41.410;2.194;2022-12-29T01:27:29;102008.28;;;16.07;55.20
49397;BME280;35615;41.410;2.194;2022-12-29T01:30:03;102002.88;;;16.01;55.37
49397;BME280;35615;41.410;2.194;2022-12-29T01:32:40;102005.47;;;16.01;55.08
49397;BME280;35615;41.410;2.194;2022-12-29T01:35:28;102008.28;;;16.07;55.11
49397;BME280;35615;41.410;2.194;2022-12-29T01:38:37;102008.06;;;16.01;55.01
49397;BME280;35615;41.410;2.194;2022-12-29T01:41:16;102006.25;;;15.98;55.10
49397;BME280;35615;41.410;2.194;2022-12-29T01:43:50;102006.97;;;15.94;55.13
49397;BME280;35615;41.410;2.194;2022-12-29T01:46:39;102011.19;;;15.91;55.00
49397;BME280;35615;41.410;2.194;2022-12-29T01:51:43;102005.22;;;15.95;55.09
49397;BME280;35615;41.410;2.194;2022-12-29T01:54:27;102014.56;;;15.88;54.77
49397;BME280;35615;41.410;2.194;2022-12-29T01:57:04;102013.53;;;15.85;54.77
49397;BME280;35615;41.410;2.194;2022-12-29T01:59:37;102012.06;;;15.91;54.59
49397;BME280;35615;41.410;2.194;2022-12-29T02:02:15;102017.06;;;15.85;54.54
49397;BME280;35615;41.410;2.194;2022-12-29T02:04:43;102011.84;;;15.85;54.72
49397;BME280;35615;41.410;2.194;2022-12-29T02:07:20;102019.78;;;15.88;54.37
49397;BME280;35615;41.410;2.194;2022-12-29T02:09:55;102006.56;;;15.84;54.12
49397;BME280;35615;41.410;2.194;2022-12-29T02:12:26;102012.44;;;15.78;53.93
49397;BME280;35615;41.410;2.194;2022-12-29T02:15:06;102010.00;;;15.83;53.96
49397;BME280;35615;41.410;2.194;2022-12-29T02:31:36;102003.25;;;15.64;53.11
49397;BME280;35615;41.410;2.194;2022-12-29T02:40:29;102005.53;;;15.56;52.87
49397;BME280;35615;41.410;2.194;2022-12-29T02:43:21;102003.84;;;15.58;53.03
49397;BME280;35615;41.410;2.194;2022-12-29T02:46:04;101998.28;;;15.49;52.82
49397;BME280;35615;41.410;2.194;2022-12-29T02:48:56;102001.63;;;15.45;52.88
49397;BME280;35615;41.410;2.194;2022-12-29T02:51:39;101998.91;;;15.42;52.59
49397;BME280;35615;41.410;2.194;2022-12-29T02:54:17;101997.00;;;15.38;52.78
49397;BME280;35615;41.410;2.194;2022-12-29T03:00:36;101990.63;;;15.30;52.60
49397;BME280;35615;41.410;2.194;2022-12-29T03:06:11;101983.09;;;15.37;53.19
49397;BME280;35615;41.410;2.194;2022-12-29T03:09:30;101978.50;;;15.30;52.67
49397;BME280;35615;41.410;2.194;2022-12-29T03:15:13;101964.34;;;15.24;52.72
49397;BME280;35615;41.410;2.194;2022-12-29T03:18:13;101972.41;;;15.30;52.55
49397;BME280;35615;41.410;2.194;2022-12-29T03:21:08;101961.78;;;15.25;52.73
49397;BME280;35615;41.410;2.194;2022-12-29T03:23:49;101963.66;;;15.29;52.87
49397;BME280;35615;41.410;2.194;2022-12-29T03:26:22;101958.13;;;15.20;53.18
49397;BME280;35615;41.410;2.194;2022-12-29T03:29:06;101959.25;;;15.27;53.22
49397;BME280;35615;41.410;2.194;2022-12-29T03:31:38;101961.75;;;15.24;52.86
49397;BME280;35615;41.410;2.194;2022-12-29T03:34:07;101961.78;;;15.25;52.73
49397;BME280;35615;41.410;2.194;2022-12-29T03:36:40;101954.72;;;15.21;53.13
49397;BME280;35615;41.410;2.194;2022-12-29T03:39:16;101952.75;;;15.16;52.99
49397;BME280;35615;41.410;2.194;2022-12-29T03:41:52;101958.78;;;15.15;53.01
49397;BME280;35615;41.410;2.194;2022-12-29T03:44:31;101953.50;;;15.13;52.92
49397;BME280;35615;41.410;2.194;2022-12-29T03:47:02;101949.13;;;15.12;53.13
49397;BME280;35615;41.410;2.194;2022-12-29T03:49:43;101942.16;;;15.11;53.26
49397;BME280;35615;41.410;2.194;2022-12-29T03:52:18;101940.56;;;15.15;53.29
49397;BME280;35615;41.410;2.194;2022-12-29T04:00:16;101938.06;;;15.18;52.97
49397;BME280;35615;41.410;2.194;2022-12-29T04:02:53;101942.38;;;15.17;53.15
49397;BME280;35615;41.410;2.194;2022-12-29T04:05:28;101935.47;;;15.18;53.23
49397;BME280;35615;41.410;2.194;2022-12-29T04:07:59;101931.84;;;15.14;53.73
49397;BME280;35615;41.410;2.194;2022-12-29T04:10:37;101945.88;;;15.18;53.20
49397;BME280;35615;41.410;2.194;2022-12-29T04:13:18;101950.97;;;15.15;53.33
49397;BME280;35615;41.410;2.194;2022-12-29T04:15:53;101943.06;;;15.11;53.16
49397;BME280;35615;41.410;2.194;2022-12-29T04:18:24;101944.50;;;15.05;53.42
49397;BME280;35615;41.410;2.194;2022-12-29T04:21:03;101953.22;;;15.05;53.15
49397;BME280;35615;41.410;2.194;2022-12-29T04:26:23;101947.78;;;14.99;52.93
49397;BME280;35615;41.410;2.194;2022-12-29T04:29:12;101941.63;;;14.97;52.75
49397;BME280;35615;41.410;2.194;2022-12-29T04:32:09;101955.59;;;14.99;52.82
49397;BME280;35615;41.410;2.194;2022-12-29T04:34:48;101950.75;;;15.08;53.03
49397;BME280;35615;41.410;2.194;2022-12-29T04:37:28;101944.75;;;14.89;52.55
49397;BME280;35615;41.410;2.194;2022-12-29T04:40:21;101941.63;;;14.97;52.60
49397;BME280;35615;41.410;2.194;2022-12-29T04:42:53;101937.00;;;14.90;52.72
49397;BME280;35615;41.410;2.194;2022-12-29T04:45:29;101941.38;;;14.91;52.82
49397;BME280;35615;41.410;2.194;2022-12-29T04:48:13;101935.66;;;15.00;52.62
49397;BME280;35615;41.410;2.194;2022-12-29T04:51:13;101934.56;;;14.95;52.39
49397;BME280;35615;41.410;2.194;2022-12-29T04:54:00;101939.78;;;14.95;52.74
49397;BME280;35615;41.410;2.194;2022-12-29T04:56:44;101942.53;;;14.98;52.82
49397;BME280;35615;41.410;2.194;2022-12-29T04:59:21;101941.31;;;14.90;52.75
49397;BME280;35615;41.410;2.194;2022-12-29T05:02:04;101937.06;;;14.92;52.59
49397;BME280;35615;41.410;2.194;2022-12-29T05:04:46;101943.88;;;14.88;52.65
49397;BME280;35615;41.410;2.194;2022-12-29T05:07:22;101945.63;;;14.89;52.55
49397;BME280;35615;41.410;2.194;2022-12-29T05:09:53;101945.69;;;14.91;52.49
49397;BME280;35615;41.410;2.194;2022-12-29T05:12:36;101956.06;;;14.89;52.72
49397;BME280;35615;41.410;2.194;2022-12-29T05:15:16;101952.03;;;14.75;52.64
49397;BME280;35615;41.410;2.194;2022-12-29T05:17:49;101950.34;;;14.77;52.37
49397;BME280;35615;41.410;2.194;2022-12-29T05:20:21;101951.31;;;14.79;52.84
49397;BME280;35615;41.410;2.194;2022-12-29T05:22:49;101947.16;;;14.84;52.53
49397;BME280;35615;41.410;2.194;2022-12-29T05:25:31;101952.34;;;14.84;52.66
49397;BME280;35615;41.410;2.194;2022-12-29T05:28:20;101942.84;;;14.85;53.27
49397;BME280;35615;41.410;2.194;2022-12-29T05:30:50;101950.34;;;14.77;52.86
49397;BME280;35615;41.410;2.194;2022-12-29T05:33:20;101949.53;;;14.78;52.70
49397;BME280;35615;41.410;2.194;2022-12-29T05:35:52;101949.47;;;14.76;52.89
49397;BME280;35615;41.410;2.194;2022-12-29T05:38:23;101947.00;;;14.79;52.68
49397;BME280;35615;41.410;2.194;2022-12-29T05:40:58;101950.22;;;14.74;53.00
49397;BME280;35615;41.410;2.194;2022-12-29T05:44:02;101939.25;;;14.81;53.23
49397;BME280;35615;41.410;2.194;2022-12-29T05:47:04;101953.06;;;14.80;52.54
49397;BME280;35615;41.410;2.194;2022-12-29T05:52:50;101947.81;;;14.78;52.58
49397;BME280;35615;41.410;2.194;2022-12-29T05:58:27;101948.53;;;14.74;53.05
49397;BME280;35615;41.410;2.194;2022-12-29T06:00:57;101957.22;;;14.75;52.29
49397;BME280;35615;41.410;2.194;2022-12-29T06:03:29;101959.81;;;14.75;52.40
49397;BME280;35615;41.410;2.194;2022-12-29T06:06:01;101960.75;;;14.77;52.36
49397;BME280;35615;41.410;2.194;2022-12-29T06:08:33;101952.66;;;14.69;52.34
49397;BME280;35615;41.410;2.194;2022-12-29T06:11:14;101957.28;;;14.76;52.03
49397;BME280;35615;41.410;2.194;2022-12-29T06:13:51;101957.84;;;14.69;51.87
49397;BME280;35615;41.410;2.194;2022-12-29T06:16:29;101966.75;;;14.53;53.00
49397;BME280;35615;41.410;2.194;2022-12-29T06:19:06;101971.56;;;14.65;51.55
49397;BME280;35615;41.410;2.194;2022-12-29T06:21:44;101978.72;;;14.71;52.21
49397;BME280;35615;41.410;2.194;2022-12-29T06:24:17;101972.72;;;14.73;51.77
49397;BME280;35615;41.410;2.194;2022-12-29T06:26:47;101983.13;;;14.73;52.12
49397;BME280;35615;41.410;2.194;2022-12-29T06:29:21;101971.94;;;14.74;52.97
49397;BME280;35615;41.410;2.194;2022-12-29T06:31:59;101984.03;;;14.74;51.48
49397;BME280;35615;41.410;2.194;2022-12-29T06:34:43;101972.94;;;14.78;52.23
49397;BME280;35615;41.410;2.194;2022-12-29T06:40:00;101978.25;;;14.81;51.57
49397;BME280;35615;41.410;2.194;2022-12-29T06:42:51;101980.63;;;14.75;52.51
49397;BME280;35615;41.410;2.194;2022-12-29T06:45:40;101977.06;;;14.73;51.21
49397;BME280;35615;41.410;2.194;2022-12-29T06:48:21;101976.31;;;14.75;51.15
49397;BME280;35615;41.410;2.194;2022-12-29T06:50:49;101975.50;;;14.76;53.00
49397;BME280;35615;41.410;2.194;2022-12-29T06:53:16;101969.41;;;14.76;51.11
49397;BME280;35615;41.410;2.194;2022-12-29T06:55:44;101970.13;;;14.73;50.82
49397;BME280;35615;41.410;2.194;2022-12-29T06:58:14;101977.66;;;14.66;51.02
49397;BME280;35615;41.410;2.194;2022-12-29T07:00:54;101973.63;;;14.74;51.40
49397;BME280;35615;41.410;2.194;2022-12-29T07:03:33;101971.94;;;14.74;51.52
49397;BME280;35615;41.410;2.194;2022-12-29T07:08:59;101960.94;;;14.81;51.58
49397;BME280;35615;41.410;2.194;2022-12-29T07:11:28;101963.41;;;14.78;50.74
49397;BME280;35615;41.410;2.194;2022-12-29T07:13:55;101965.91;;;14.75;50.75
49397;BME280;35615;41.410;2.194;2022-12-29T07:16:33;101967.91;;;14.82;52.44
49397;BME280;35615;41.410;2.194;2022-12-29T07:19:04;101977.44;;;14.82;52.50
49397;BME280;35615;41.410;2.194;2022-12-29T07:21:31;101981.06;;;14.86;51.71
49397;BME280;35615;41.410;2.194;2022-12-29T07:23:58;101974.16;;;14.86;52.13
49397;BME280;35615;41.410;2.194;2022-12-29T07:26:25;101976.81;;;14.88;52.31
49397;BME280;35615;41.410;2.194;2022-12-29T07:29:02;101970.06;;;14.93;51.39
49397;BME280;35615;41.410;2.194;2022-12-29T07:31:30;101976.19;;;14.95;51.19
49397;BME280;35615;41.410;2.194;2022-12-29T07:33:57;101978.94;;;14.98;50.80
49397;BME280;35615;41.410;2.194;2022-12-29T07:36:24;101985.63;;;14.91;51.50
49397;BME280;35615;41.410;2.194;2022-12-29T07:38:59;101993.69;;;14.97;50.13
49397;BME280;35615;41.410;2.194;2022-12-29T07:41:26;101988.97;;;15.09;50.08
49397;BME280;35615;41.410;2.194;2022-12-29T07:43:53;101982.16;;;15.13;49.92
49397;BME280;35615;41.410;2.194;2022-12-29T07:46:43;101986.41;;;15.11;49.51
49397;BME280;35615;41.410;2.194;2022-12-29T07:49:22;101998.81;;;15.18;49.51
49397;BME280;35615;41.410;2.194;2022-12-29T07:51:49;101992.94;;;15.22;49.47
49397;BME280;35615;41.410;2.194;2022-12-29T07:54:16;102004.38;;;15.27;49.33
49397;BME280;35615;41.410;2.194;2022-12-29T07:56:49;102004.44;;;15.29;49.40
49397;BME280;35615;41.410;2.194;2022-12-29T07:59:19;102018.22;;;15.26;48.95
49397;BME280;35615;41.410;2.194;2022-12-29T08:01:47;102017.72;;;15.35;48.88
49397;BME280;35615;41.410;2.194;2022-12-29T08:04:15;102019.31;;;15.31;49.24
49397;BME280;35615;41.410;2.194;2022-12-29T08:06:42;102017.88;;;15.17;48.65
49397;BME280;35615;41.410;2.194;2022-12-29T08:09:12;102014.13;;;15.31;49.04
49397;BME280;35615;41.410;2.194;2022-12-29T08:11:48;102020.00;;;15.27;48.98
49397;BME280;35615;41.410;2.194;2022-12-29T08:14:15;102019.50;;;15.36;48.67
49397;BME280;35615;41.410;2.194;2022-12-29T08:16:42;102014.22;;;15.34;48.96
49397;BME280;35615;41.410;2.194;2022-12-29T08:19:12;102020.69;;;15.44;48.76
49397;BME280;35615;41.410;2.194;2022-12-29T08:21:39;102020.91;;;15.50;49.19
49397;BME280;35615;41.410;2.194;2022-12-29T08:24:07;102020.84;;;15.49;48.81
49397;BME280;35615;41.410;2.194;2022-12-29T08:26:46;102021.16;;;15.56;48.32
49397;BME280;35615;41.410;2.194;2022-12-29T08:29:17;102027.53;;;15.63;48.57
49397;BME280;35615;41.410;2.194;2022-12-29T08:31:44;102030.34;;;15.69;48.59
49397;BME280;35615;41.410;2.194;2022-12-29T08:34:11;102025.44;;;15.77;48.12
49397;BME280;35615;41.410;2.194;2022-12-29T08:36:38;102025.59;;;15.81;48.22
49397;BME280;35615;41.410;2.194;2022-12-29T08:39:06;102037.09;;;15.86;48.36
49397;BME280;35615;41.410;2.194;2022-12-29T08:41:33;102034.59;;;15.89;48.08
49397;BME280;35615;41.410;2.194;2022-12-29T08:44:00;102041.66;;;15.93;48.20
49397;BME280;35615;41.410;2.194;2022-12-29T08:46:27;102041.19;;;16.04;47.14
49397;BME280;35615;41.410;2.194;2022-12-29T08:48:57;102046.78;;;16.14;47.68
49397;BME280;35615;41.410;2.194;2022-12-29T08:51:24;102044.19;;;16.14;47.99
49397;BME280;35615;41.410;2.194;2022-12-29T08:53:51;102033.78;;;16.16;47.49
49397;BME280;35615;41.410;2.194;2022-12-29T08:56:21;102041.75;;;16.19;49.00
49397;BME280;35615;41.410;2.194;2022-12-29T08:58:54;102037.13;;;16.36;48.12
49397;BME280;35615;41.410;2.194;2022-12-29T09:01:22;102039.25;;;16.47;47.58
49397;BME280;35615;41.410;2.194;2022-12-29T09:03:50;102041.97;;;16.50;47.49
49397;BME280;35615;41.410;2.194;2022-12-29T09:06:39;102043.22;;;16.62;47.32
49397;BME280;35615;41.410;2.194;2022-12-29T09:09:07;102040.25;;;16.75;46.81
49397;BME280;35615;41.410;2.194;2022-12-29T09:11:34;102043.25;;;16.87;46.67
49397;BME280;35615;41.410;2.194;2022-12-29T09:14:01;102048.88;;;16.99;46.08
49397;BME280;35615;41.410;2.194;2022-12-29T09:16:28;102040.47;;;17.08;46.20
49397;BME280;35615;41.410;2.194;2022-12-29T09:18:55;102051.63;;;17.31;46.29
49397;BME280;35615;41.410;2.194;2022-12-29T09:21:22;102053.06;;;17.50;46.14
49397;BME280;35615;41.410;2.194;2022-12-29T09:23:49;102046.59;;;17.65;45.55
49397;BME280;35615;41.410;2.194;2022-12-29T09:26:19;102054.97;;;17.82;44.68
49397;BME280;35615;41.410;2.194;2022-12-29T09:28:49;102050.81;;;17.89;44.28
49397;BME280;35615;41.410;2.194;2022-12-29T09:31:19;102053.56;;;17.95;44.87
49397;BME280;35615;41.410;2.194;2022-12-29T09:33:46;102050.19;;;17.97;44.83
49397;BME280;35615;41.410;2.194;2022-12-29T09:36:14;102047.31;;;17.88;43.82
49397;BME280;35615;41.410;2.194;2022-12-29T09:38:42;102054.03;;;17.80;43.59
49397;BME280;35615;41.410;2.194;2022-12-29T09:41:16;102049.00;;;17.86;42.85
49397;BME280;35615;41.410;2.194;2022-12-29T09:44:06;102048.22;;;17.90;42.60
49397;BME280;35615;41.410;2.194;2022-12-29T09:46:37;102052.38;;;17.84;43.82
49397;BME280;35615;41.410;2.194;2022-12-29T09:51:56;102041.69;;;18.06;42.52
49397;BME280;35615;41.410;2.194;2022-12-29T09:56:54;102052.69;;;18.24;43.04
49397;BME280;35615;41.410;2.194;2022-12-29T09:59:24;102054.69;;;18.35;43.52
49397;BME280;35615;41.410;2.194;2022-12-29T10:01:56;102048.94;;;18.48;42.54
49397;BME280;35615;41.410;2.194;2022-12-29T10:04:26;102047.50;;;18.92;41.68
49397;BME280;35615;41.410;2.194;2022-12-29T10:06:57;102039.97;;;19.06;40.34
49397;BME280;35615;41.410;2.194;2022-12-29T10:25:24;101998.44;;;20.49;36.97
49397;BME280;35615;41.410;2.194;2022-12-29T10:27:59;102004.72;;;20.59;35.43
49397;BME280;35615;41.410;2.194;2022-12-29T10:30:28;101999.72;;;20.26;34.64
49397;BME280;35615;41.410;2.194;2022-12-29T10:32:58;101995.94;;;20.57;34.31
49397;BME280;35615;41.410;2.194;2022-12-29T10:35:35;101995.81;;;21.05;33.46
49397;BME280;35615;41.410;2.194;2022-12-29T10:45:57;101974.75;;;23.77;29.66
49397;BME280;35615;41.410;2.194;2022-12-29T10:48:30;101964.28;;;24.08;28.95
49397;BME280;35615;41.410;2.194;2022-12-29T10:51:01;101964.34;;;24.52;28.95
49397;BME280;35615;41.410;2.194;2022-12-29T10:53:40;101964.34;;;24.55;28.48
49397;BME280;35615;41.410;2.194;2022-12-29T10:56:20;101964.28;;;25.19;27.52
49397;BME280;35615;41.410;2.194;2022-12-29T10:58:48;101950.06;;;25.46;26.95
49397;BME280;35615;41.410;2.194;2022-12-29T11:01:16;101951.72;;;25.77;26.41
49397;BME280;35615;41.410;2.194;2022-12-29T11:03:54;101945.28;;;26.14;26.04
49397;BME280;35615;41.410;2.194;2022-12-29T11:06:32;101943.84;;;26.83;25.35
49397;BME280;35615;41.410;2.194;2022-12-29T11:09:12;101945.38;;;27.07;24.75
49397;BME280;35615;41.410;2.194;2022-12-29T11:11:41;101932.34;;;27.58;24.31
49397;BME280;35615;41.410;2.194;2022-12-29T11:16:40;101914.22;;;28.46;23.31
49397;BME280;35615;41.410;2.194;2022-12-29T11:19:30;101921.22;;;28.52;22.54
49397;BME280;35615;41.410;2.194;2022-12-29T11:21:55;101911.13;;;29.17;21.70
49397;BME280;35615;41.410;2.194;2022-12-29T11:24:43;101892.16;;;28.90;22.10
49397;BME280;35615;41.410;2.194;2022-12-29T11:27:15;101894.53;;;29.46;21.86
49397;BME280;35615;41.410;2.194;2022-12-29T11:29:43;101895.84;;;30.05;21.51
49397;BME280;35615;41.410;2.194;2022-12-29T11:32:11;101889.63;;;30.41;21.20
49397;BME280;35615;41.410;2.194;2022-12-29T11:34:38;101885.22;;;30.40;21.36
49397;BME280;35615;41.410;2.194;2022-12-29T11:37:12;101888.44;;;29.79;21.37
49397;BME280;35615;41.410;2.194;2022-12-29T11:42:22;101883.19;;;27.93;23.22
49397;BME280;35615;41.410;2.194;2022-12-29T11:44:53;101881.41;;;27.95;23.57
49397;BME280;35615;41.410;2.194;2022-12-29T11:47:30;101882.81;;;27.57;24.08
49397;BME280;35615;41.410;2.194;2022-12-29T11:49:59;101878.22;;;27.04;24.50
49397;BME280;35615;41.410;2.194;2022-12-29T11:52:29;101884.03;;;27.96;23.61
49397;BME280;35615;41.410;2.194;2022-12-29T11:54:59;101877.28;;;28.79;23.35
49397;BME280;35615;41.410;2.194;2022-12-29T11:57:27;101867.34;;;29.70;22.15
49397;BME280;35615;41.410;2.194;2022-12-29T11:59:55;101870.13;;;29.66;21.50
49397;BME280;35615;41.410;2.194;2022-12-29T12:02:37;101858.44;;;30.10;21.61
49397;BME280;35615;41.410;2.194;2022-12-29T12:05:13;101851.38;;;30.42;21.33
49397;BME280;35615;41.410;2.194;2022-12-29T12:07:44;101855.00;;;30.39;20.90
49397;BME280;35615;41.410;2.194;2022-12-29T12:10:17;101842.13;;;30.55;20.83
49397;BME280;35615;41.410;2.194;2022-12-29T12:15:54;101830.16;;;30.39;20.65
49397;BME280;35615;41.410;2.194;2022-12-29T12:18:30;101822.56;;;30.87;20.59
49397;BME280;35615;41.410;2.194;2022-12-29T12:21:22;101815.22;;;31.26;20.26
49397;BME280;35615;41.410;2.194;2022-12-29T12:29:47;101821.72;;;31.14;20.40
49397;BME280;35615;41.410;2.194;2022-12-29T12:32:22;101823.50;;;29.85;20.82
49397;BME280;35615;41.410;2.194;2022-12-29T12:34:51;101818.88;;;29.92;21.63
49397;BME280;35615;41.410;2.194;2022-12-29T12:37:29;101815.97;;;30.36;21.19
49397;BME280;35615;41.410;2.194;2022-12-29T12:45:30;101793.69;;;30.06;21.37
49397;BME280;35615;41.410;2.194;2022-12-29T12:48:11;101799.03;;;28.46;22.86
49397;BME280;35615;41.410;2.194;2022-12-29T12:53:24;101796.53;;;27.30;24.64
49397;BME280;35615;41.410;2.194;2022-12-29T12:56:10;101789.00;;;27.58;24.56
49397;BME280;35615;41.410;2.194;2022-12-29T12:58:48;101777.38;;;28.19;23.84
49397;BME280;35615;41.410;2.194;2022-12-29T13:01:37;101770.88;;;28.79;23.68
49397;BME280;35615;41.410;2.194;2022-12-29T13:04:26;101767.75;;;29.02;23.01
49397;BME280;35615;41.410;2.194;2022-12-29T13:07:07;101766.56;;;29.54;22.82
49397;BME280;35615;41.410;2.194;2022-12-29T13:09:53;101753.91;;;30.31;22.11
49397;BME280;35615;41.410;2.194;2022-12-29T13:12:31;101754.59;;;30.69;21.57
49397;BME280;35615;41.410;2.194;2022-12-29T13:18:22;101744.53;;;30.48;21.51
49397;BME280;35615;41.410;2.194;2022-12-29T13:20:47;101742.53;;;30.56;21.48
49397;BME280;35615;41.410;2.194;2022-12-29T13:23:27;101740.72;;;30.87;21.59
49397;BME280;35615;41.410;2.194;2022-12-29T13:28:29;101742.22;;;30.35;21.78
49397;BME280;35615;41.410;2.194;2022-12-29T13:36:08;101747.38;;;27.62;24.83
49397;BME280;35615;41.410;2.194;2022-12-29T13:38:43;101741.38;;;27.47;25.50
49397;BME280;35615;41.410;2.194;2022-12-29T13:41:25;101746.75;;;26.03;27.10
49397;BME280;35615;41.410;2.194;2022-12-29T13:43:55;101745.97;;;25.92;28.88
49397;BME280;35615;41.410;2.194;2022-12-29T13:46:27;101750.38;;;25.94;29.21
49397;BME280;35615;41.410;2.194;2022-12-29T13:48:57;101749.53;;;26.71;29.16
49397;BME280;35615;41.410;2.194;2022-12-29T13:51:28;101750.56;;;26.59;29.52
49397;BME280;35615;41.410;2.194;2022-12-29T14:05:27;101721.91;;;25.10;29.09
49397;BME280;35615;41.410;2.194;2022-12-29T14:08:13;101718.44;;;24.98;29.05
49397;BME280;35615;41.410;2.194;2022-12-29T14:10:49;101714.78;;;25.20;28.97
49397;BME280;35615;41.410;2.194;2022-12-29T14:13:18;101710.47;;;25.08;29.35
49397;BME280;35615;41.410;2.194;2022-12-29T14:15:50;101724.59;;;25.06;29.36
49397;BME280;35615;41.410;2.194;2022-12-29T14:18:19;101722.84;;;24.96;29.82
49397;BME280;35615;41.410;2.194;2022-12-29T14:20:50;101721.28;;;24.53;31.13
49397;BME280;35615;41.410;2.194;2022-12-29T14:23:28;101728.28;;;24.65;31.97
49397;BME280;35615;41.410;2.194;2022-12-29T14:31:49;101752.09;;;22.99;37.56
49397;BME280;35615;41.410;2.194;2022-12-29T14:38:59;101753.00;;;23.21;36.55
49397;BME280;35615;41.410;2.194;2022-12-29T14:41:35;101748.59;;;23.09;37.12
49397;BME280;35615;41.410;2.194;2022-12-29T14:46:43;101750.34;;;23.16;35.20
49397;BME280;35615;41.410;2.194;2022-12-29T14:49:27;101738.06;;;23.07;33.69
49397;BME280;35615;41.410;2.194;2022-12-29T14:52:20;101747.72;;;23.16;32.88
49397;BME280;35615;41.410;2.194;2022-12-29T14:54:53;101746.69;;;22.76;33.11
49397;BME280;35615;41.410;2.194;2022-12-29T14:57:32;101760.91;;;23.10;32.77
49397;BME280;35615;41.410;2.194;2022-12-29T15:00:08;101749.47;;;23.11;32.69
49397;BME280;35615;41.410;2.194;2022-12-29T15:02:48;101751.19;;;22.98;32.65
49397;BME280;35615;41.410;2.194;2022-12-29T15:05:44;101750.16;;;22.63;33.27
49397;BME280;35615;41.410;2.194;2022-12-29T15:08:22;101748.47;;;22.80;33.06
49397;BME280;35615;41.410;2.194;2022-12-29T15:10:59;101737.00;;;22.72;32.99
49397;BME280;35615;41.410;2.194;2022-12-29T15:13:38;101740.50;;;22.71;32.94
49397;BME280;35615;41.410;2.194;2022-12-29T15:16:20;101757.19;;;22.62;33.25
49397;BME280;35615;41.410;2.194;2022-12-29T15:18:47;101742.16;;;22.44;33.58
49397;BME280;35615;41.410;2.194;2022-12-29T15:21:15;101752.69;;;22.47;33.39
49397;BME280;35615;41.410;2.194;2022-12-29T15:23:45;101753.38;;;22.16;33.49
49397;BME280;35615;41.410;2.194;2022-12-29T15:26:23;101749.03;;;22.19;33.79
49397;BME280;35615;41.410;2.194;2022-12-29T15:28:51;101756.78;;;22.01;34.13
49397;BME280;35615;41.410;2.194;2022-12-29T15:31:20;101758.50;;;21.96;34.15
49397;BME280;35615;41.410;2.194;2022-12-29T15:34:01;101739.94;;;21.78;34.70
49397;BME280;35615;41.410;2.194;2022-12-29T15:36:38;101741.78;;;21.89;34.68
49397;BME280;35615;41.410;2.194;2022-12-29T15:42:03;101747.72;;;21.65;34.64
49397;BME280;35615;41.410;2.194;2022-12-29T15:44:40;101755.47;;;21.50;34.80
49397;BME280;35615;41.410;2.194;2022-12-29T15:47:21;101749.13;;;21.28;35.31
49397;BME280;35615;41.410;2.194;2022-12-29T15:49:53;101747.56;;;21.49;35.03
49397;BME280;35615;41.410;2.194;2022-12-29T15:52:27;101746.00;;;21.69;35.11
49397;BME280;35615;41.410;2.194;2022-12-29T15:54:57;101745.75;;;21.40;35.12
49397;BME280;35615;41.410;2.194;2022-12-29T15:57:26;101744.16;;;21.59;35.06
49397;BME280;35615;41.410;2.194;2022-12-29T16:00:23;101741.38;;;21.40;35.36